Time;durP1;ratioP1;P1;durP2;ratioP2;P2;SDS_P1;SDS_P2;PMS_P1;PMS_P2;Temp;Humidity;BMP_temperature;BMP_pressure;BME280_temperature;BME280_humidity;BME280_pressure;Samples;Min_cycle;Max_cycle;Signal;HPM_P1;HPM_P2
2023/07/17 00:01:08;;;;;;;3.87;3.53;;;19.40;99.90;;;;;;4992912;28;20563;-57
2023/07/17 00:03:36;;;;;;;3.53;3.23;;;19.40;99.90;;;;;;4998349;28;20510;-56
2023/07/17 00:06:04;;;;;;;3.57;3.27;;;19.40;99.90;;;;;;4996384;28;20472;-57
2023/07/17 00:08:33;;;;;;;4.20;3.63;;;19.40;99.90;;;;;;4997401;28;20496;-58
2023/07/17 00:11:02;;;;;;;4.10;3.70;;;19.40;99.90;;;;;;4995053;28;20468;-56
2023/07/17 00:13:30;;;;;;;3.90;3.60;;;19.40;99.90;;;;;;4997401;28;20493;-58
2023/07/17 00:15:58;;;;;;;4.23;3.37;;;19.30;99.90;;;;;;4998471;28;21085;-58
2023/07/17 00:18:26;;;;;;;3.73;3.30;;;19.30;99.90;;;;;;4997716;28;20469;-56
2023/07/17 00:20:54;;;;;;;4.57;3.80;;;19.30;99.90;;;;;;4997145;28;20527;-59
2023/07/17 00:23:22;;;;;;;6.17;3.70;;;19.20;99.90;;;;;;4994870;28;20472;-57
2023/07/17 00:25:51;;;;;;;5.33;3.67;;;19.20;99.90;;;;;;4997176;28;20505;-58
2023/07/17 00:28:19;;;;;;;5.20;3.23;;;19.10;99.90;;;;;;4997140;28;20500;-58
2023/07/17 00:30:48;;;;;;;3.30;3.00;;;19.10;99.90;;;;;;4996672;28;20487;-58
2023/07/17 00:33:16;;;;;;;4.23;3.83;;;19.00;99.90;;;;;;4995770;28;20575;-57
2023/07/17 00:35:44;;;;;;;3.40;3.10;;;19.00;99.90;;;;;;4998484;28;20544;-57
2023/07/17 00:38:12;;;;;;;3.27;3.07;;;19.00;99.90;;;;;;4999359;28;20460;-57
2023/07/17 00:40:40;;;;;;;4.40;3.67;;;18.90;99.90;;;;;;4995643;28;20469;-57
2023/07/17 00:43:11;;;;;;;6.60;4.00;;;18.90;99.90;;;;;;4993905;28;20595;-56
2023/07/17 00:45:42;;;;;;;4.80;3.60;;;18.90;99.90;;;;;;4998612;28;20548;-58
2023/07/17 00:48:11;;;;;;;4.30;3.53;;;18.90;99.90;;;;;;4999029;28;20917;-57
2023/07/17 00:50:39;;;;;;;4.37;3.67;;;18.90;99.90;;;;;;4998639;28;20509;-58
2023/07/17 00:53:08;;;;;;;4.07;3.77;;;18.80;99.90;;;;;;4996297;28;20583;-57
2023/07/17 00:55:38;;;;;;;3.97;3.50;;;18.80;99.90;;;;;;4995801;28;21878;-57
2023/07/17 00:58:07;;;;;;;3.90;3.60;;;18.80;99.90;;;;;;4994113;28;20468;-57
2023/07/17 01:00:36;;;;;;;3.60;3.30;;;18.80;99.90;;;;;;4991740;28;20507;-58
2023/07/17 01:03:04;;;;;;;4.43;4.03;;;18.80;99.90;;;;;;4995521;28;23130;-58
2023/07/17 01:05:33;;;;;;;3.77;3.47;;;18.80;99.90;;;;;;4997939;28;20617;-58
2023/07/17 01:08:01;;;;;;;4.03;3.70;;;18.80;99.90;;;;;;4994276;28;20496;-57
2023/07/17 01:10:29;;;;;;;5.10;3.70;;;18.80;99.90;;;;;;4992937;28;20568;-57
2023/07/17 01:12:57;;;;;;;4.10;3.50;;;18.80;99.90;;;;;;4996038;28;20911;-57
2023/07/17 01:15:25;;;;;;;4.17;3.60;;;18.80;99.90;;;;;;4995772;28;20508;-57
2023/07/17 01:17:54;;;;;;;5.50;3.47;;;18.80;99.90;;;;;;4995922;28;20581;-57
2023/07/17 01:20:22;;;;;;;4.47;3.67;;;18.80;99.90;;;;;;4997838;28;20476;-59
2023/07/17 01:22:56;;;;;;;3.90;3.57;;;18.70;99.90;;;;;;4995438;28;20494;-57
2023/07/17 01:25:24;;;;;;;4.50;3.80;;;18.70;99.90;;;;;;4994925;28;20491;-57
2023/07/17 01:27:52;;;;;;;5.40;4.00;;;18.70;99.90;;;;;;4995659;28;20491;-58
2023/07/17 01:30:20;;;;;;;4.40;3.80;;;18.70;99.90;;;;;;4995581;28;20479;-58
2023/07/17 01:32:48;;;;;;;3.93;3.63;;;18.70;99.90;;;;;;4995890;28;20562;-58
2023/07/17 01:35:16;;;;;;;4.17;3.77;;;18.70;99.90;;;;;;4996110;28;20484;-58
2023/07/17 01:37:44;;;;;;;4.77;3.70;;;18.70;99.90;;;;;;4996453;28;20569;-57
2023/07/17 01:40:16;;;;;;;3.73;3.40;;;18.70;99.90;;;;;;4994607;28;20506;-57
2023/07/17 01:42:44;;;;;;;4.77;4.23;;;18.70;99.90;;;;;;4995895;28;20573;-57
2023/07/17 01:45:12;;;;;;;4.60;4.20;;;18.70;99.90;;;;;;4996216;28;20582;-57
2023/07/17 01:47:40;;;;;;;6.30;4.17;;;18.60;99.90;;;;;;4995008;28;20584;-56
2023/07/17 01:50:09;;;;;;;6.27;4.50;;;18.60;99.90;;;;;;4996824;28;20937;-57
2023/07/17 01:52:37;;;;;;;3.93;3.63;;;18.60;99.90;;;;;;4995913;28;20879;-58
2023/07/17 01:55:06;;;;;;;4.50;4.10;;;18.60;99.90;;;;;;4994942;28;20570;-57
2023/07/17 01:57:35;;;;;;;6.13;3.93;;;18.60;99.90;;;;;;4995354;28;20555;-57
2023/07/17 02:00:05;;;;;;;5.27;4.20;;;18.60;99.90;;;;;;4990569;28;20560;-57
2023/07/17 02:02:33;;;;;;;4.43;4.03;;;18.60;99.90;;;;;;4995844;28;21075;-58
2023/07/17 02:05:02;;;;;;;5.23;4.73;;;18.60;99.90;;;;;;4995671;28;21005;-58
2023/07/17 02:07:30;;;;;;;4.23;3.83;;;18.60;99.90;;;;;;4998066;28;20555;-57
2023/07/17 02:09:58;;;;;;;5.20;4.70;;;18.60;99.90;;;;;;4994443;28;20493;-58
2023/07/17 02:12:26;;;;;;;5.03;4.50;;;18.60;99.90;;;;;;4996368;28;20527;-57
2023/07/17 02:14:55;;;;;;;5.60;4.20;;;18.60;99.90;;;;;;4993092;28;20539;-57
2023/07/17 02:17:23;;;;;;;4.80;4.40;;;18.60;99.90;;;;;;4994964;28;20493;-57
2023/07/17 02:19:51;;;;;;;5.37;4.40;;;18.50;99.90;;;;;;4996605;28;20462;-58
2023/07/17 02:22:19;;;;;;;5.80;5.00;;;18.50;99.90;;;;;;4997277;28;20592;-58
2023/07/17 02:24:47;;;;;;;5.60;5.10;;;18.50;99.90;;;;;;4993103;28;20578;-58
2023/07/17 02:27:15;;;;;;;4.83;4.43;;;18.40;99.90;;;;;;4997902;28;20507;-58
2023/07/17 02:29:43;;;;;;;5.13;4.63;;;18.40;99.90;;;;;;5000136;28;20923;-57
2023/07/17 02:32:13;;;;;;;6.13;4.60;;;18.40;99.90;;;;;;5000461;28;20564;-58
2023/07/17 02:34:41;;;;;;;4.87;4.47;;;18.30;99.90;;;;;;4999235;28;20502;-58
2023/07/17 02:37:10;;;;;;;6.43;5.00;;;18.30;99.90;;;;;;4999716;28;20572;-57
2023/07/17 02:39:38;;;;;;;4.93;4.33;;;18.30;99.90;;;;;;5000848;28;20473;-58
2023/07/17 02:42:06;;;;;;;6.60;6.00;;;18.30;99.90;;;;;;4998846;28;20494;-58
2023/07/17 02:44:34;;;;;;;5.57;5.10;;;18.30;99.90;;;;;;4997974;28;20570;-58
2023/07/17 02:47:02;;;;;;;4.93;4.50;;;18.30;99.90;;;;;;5001677;28;20918;-57
2023/07/17 02:49:32;;;;;;;5.57;4.93;;;18.20;99.90;;;;;;5000586;28;20572;-57
2023/07/17 02:52:00;;;;;;;6.00;5.40;;;18.20;99.90;;;;;;5000456;28;20542;-57
2023/07/17 02:54:28;;;;;;;5.73;5.10;;;18.20;99.90;;;;;;4996607;28;20579;-58
2023/07/17 02:56:59;;;;;;;5.70;5.30;;;18.10;99.90;;;;;;4998528;28;20518;-56
2023/07/17 02:59:27;;;;;;;5.30;4.90;;;18.10;99.90;;;;;;4999778;28;20491;-58
2023/07/17 03:01:55;;;;;;;5.73;4.93;;;18.10;99.90;;;;;;4996732;28;21037;-58
2023/07/17 03:04:23;;;;;;;5.30;4.77;;;18.10;99.90;;;;;;5001725;28;20488;-57
2023/07/17 03:06:52;;;;;;;5.73;5.00;;;18.20;99.90;;;;;;4999956;28;20563;-58
2023/07/17 03:09:20;;;;;;;5.03;4.53;;;18.20;99.90;;;;;;4991291;28;20543;-58
2023/07/17 03:11:48;;;;;;;4.70;4.30;;;18.20;99.90;;;;;;4996895;28;20575;-58
2023/07/17 03:14:16;;;;;;;5.17;4.67;;;18.10;99.90;;;;;;4998305;28;20504;-57
2023/07/17 03:16:44;;;;;;;4.77;3.70;;;18.20;99.90;;;;;;4996770;28;20477;-58
2023/07/17 03:19:12;;;;;;;6.43;3.97;;;18.10;99.90;;;;;;5001274;28;20470;-58
2023/07/17 03:21:40;;;;;;;5.10;4.20;;;18.10;99.90;;;;;;4999253;28;20503;-58
2023/07/17 03:24:10;;;;;;;4.90;4.50;;;18.10;99.90;;;;;;4996960;28;20581;-58
2023/07/17 03:26:38;;;;;;;4.33;3.87;;;18.10;99.90;;;;;;5000801;28;20624;-58
2023/07/17 03:29:06;;;;;;;4.50;4.10;;;18.10;99.90;;;;;;4997813;28;20506;-57
2023/07/17 03:31:34;;;;;;;5.10;4.10;;;18.10;99.90;;;;;;4998555;28;20484;-58
2023/07/17 03:34:02;;;;;;;4.03;3.63;;;18.10;99.90;;;;;;4995751;28;20519;-58
2023/07/17 03:36:30;;;;;;;4.60;4.20;;;18.10;99.90;;;;;;4994737;28;20599;-57
2023/07/17 03:38:58;;;;;;;5.00;4.23;;;18.10;99.90;;;;;;4998348;28;21166;-59
2023/07/17 03:41:27;;;;;;;4.63;4.10;;;18.10;99.90;;;;;;4995680;28;21049;-59
2023/07/17 03:43:58;;;;;;;4.77;4.30;;;18.10;99.90;;;;;;4995067;28;20489;-58
2023/07/17 03:46:27;;;;;;;4.70;4.20;;;18.10;99.90;;;;;;4996766;28;22799;-59
2023/07/17 03:48:55;;;;;;;4.73;3.87;;;18.20;99.90;;;;;;4998201;28;20496;-58
2023/07/17 03:51:23;;;;;;;5.00;3.97;;;18.20;99.90;;;;;;4996711;28;20484;-59
2023/07/17 03:53:52;;;;;;;6.23;4.43;;;18.20;99.90;;;;;;4998579;28;20489;-58
2023/07/17 03:56:20;;;;;;;5.30;4.80;;;18.20;99.90;;;;;;4997607;28;20484;-59
2023/07/17 03:58:50;;;;;;;5.10;4.60;;;18.20;99.90;;;;;;4997795;28;20555;-58
2023/07/17 04:01:18;;;;;;;5.50;4.00;;;18.20;99.90;;;;;;4998968;28;20559;-58
2023/07/17 04:03:46;;;;;;;6.07;4.77;;;18.20;99.90;;;;;;4996887;28;20611;-58
2023/07/17 04:06:18;;;;;;;5.40;3.73;;;18.20;99.90;;;;;;4995870;28;21322;-59
2023/07/17 04:08:46;;;;;;;4.93;4.30;;;18.20;99.90;;;;;;4995245;28;20556;-58
2023/07/17 04:11:15;;;;;;;5.33;4.23;;;18.10;99.90;;;;;;4994812;28;20504;-59
2023/07/17 04:13:45;;;;;;;6.93;4.07;;;18.10;99.90;;;;;;4999113;28;20495;-58
2023/07/17 04:16:16;;;;;;;4.13;3.73;;;18.10;99.90;;;;;;4996929;28;20576;-58
2023/07/17 04:18:44;;;;;;;6.30;4.40;;;18.10;99.90;;;;;;4999587;28;20536;-58
2023/07/17 04:21:12;;;;;;;4.27;3.63;;;18.10;99.90;;;;;;4994904;28;20532;-57
2023/07/17 04:23:40;;;;;;;3.83;3.43;;;18.10;99.90;;;;;;4998575;28;20523;-58
2023/07/17 04:26:08;;;;;;;4.73;3.87;;;18.10;99.90;;;;;;4997444;28;20469;-58
2023/07/17 04:28:36;;;;;;;6.47;4.40;;;18.10;99.90;;;;;;4998413;28;20515;-59
2023/07/17 04:31:04;;;;;;;4.47;4.07;;;18.10;99.90;;;;;;4994934;28;20569;-59
2023/07/17 04:33:34;;;;;;;4.73;4.23;;;18.20;99.90;;;;;;4996962;28;21075;-59
2023/07/17 04:36:05;;;;;;;4.20;3.60;;;18.20;99.90;;;;;;4996344;28;20993;-59
2023/07/17 04:38:33;;;;;;;5.37;4.30;;;18.20;99.90;;;;;;4995633;28;20607;-59
2023/07/17 04:41:03;;;;;;;5.07;3.90;;;18.20;99.90;;;;;;4992807;28;20477;-58
2023/07/17 04:43:31;;;;;;;6.87;4.33;;;18.30;99.90;;;;;;4990665;28;20588;-58
2023/07/17 04:45:59;;;;;;;5.90;4.40;;;18.30;99.90;;;;;;4993599;28;20498;-58
2023/07/17 04:48:27;;;;;;;5.00;4.47;;;18.30;99.90;;;;;;4991705;28;20491;-58
2023/07/17 04:50:56;;;;;;;6.93;3.90;;;18.40;99.90;;;;;;4990152;28;20514;-57
2023/07/17 04:53:24;;;;;;;5.50;3.80;;;18.40;99.90;;;;;;4993159;28;20550;-61
2023/07/17 04:55:52;;;;;;;4.40;3.50;;;18.40;99.90;;;;;;4994292;28;20535;-58
2023/07/17 04:58:20;;;;;;;4.60;4.00;;;18.30;99.90;;;;;;4995196;28;20561;-58
2023/07/17 05:00:48;;;;;;;6.10;4.20;;;18.30;99.90;;;;;;4993726;28;20555;-58
2023/07/17 05:03:17;;;;;;;4.13;3.50;;;18.30;99.90;;;;;;4990663;28;20505;-59
2023/07/17 05:05:48;;;;;;;3.73;3.43;;;18.30;99.90;;;;;;4993987;28;20544;-59
2023/07/17 05:08:18;;;;;;;4.80;4.30;;;18.30;99.90;;;;;;4997878;28;20582;-59
2023/07/17 05:10:54;;;;;;;4.53;3.80;;;18.30;99.90;;;;;;4989440;28;20513;-59
2023/07/17 05:13:22;;;;;;;7.10;4.07;;;18.30;99.90;;;;;;4992147;28;20522;-59
2023/07/17 05:15:50;;;;;;;4.90;3.97;;;18.30;99.90;;;;;;4993187;28;20563;-59
2023/07/17 05:18:18;;;;;;;4.30;3.90;;;18.30;99.90;;;;;;4992903;28;20497;-59
2023/07/17 05:20:47;;;;;;;5.10;4.60;;;18.30;99.90;;;;;;4984528;28;20606;-59
2023/07/17 05:23:16;;;;;;;4.30;3.90;;;18.30;99.90;;;;;;4995021;28;20481;-59
2023/07/17 05:25:54;;;;;;;4.90;4.00;;;18.30;99.90;;;;;;4985024;28;20473;-58
2023/07/17 05:28:24;;;;;;;6.13;4.00;;;18.30;99.90;;;;;;4986543;28;20559;-59
2023/07/17 05:30:52;;;;;;;4.37;3.97;;;18.30;99.90;;;;;;4980265;28;20536;-59
2023/07/17 05:33:21;;;;;;;4.30;3.90;;;18.40;99.90;;;;;;4991550;28;20468;-59
2023/07/17 05:35:49;;;;;;;6.23;3.90;;;18.40;99.90;;;;;;4986661;28;20568;-59
2023/07/17 05:38:17;;;;;;;5.37;3.70;;;18.40;99.90;;;;;;4992256;28;20468;-59
2023/07/17 05:40:46;;;;;;;5.37;3.50;;;18.40;99.90;;;;;;4986099;28;20511;-58
2023/07/17 05:43:14;;;;;;;4.13;3.60;;;18.40;99.90;;;;;;4993749;28;20480;-58
2023/07/17 05:45:42;;;;;;;4.60;4.10;;;18.40;99.90;;;;;;4992010;28;20556;-57
2023/07/17 05:48:10;;;;;;;6.90;4.00;;;18.50;99.90;;;;;;4984563;28;20579;-58
2023/07/17 05:50:39;;;;;;;4.07;3.60;;;18.40;99.90;;;;;;4987797;28;20492;-58
2023/07/17 05:53:07;;;;;;;4.70;4.07;;;18.50;99.90;;;;;;4987617;28;20493;-58
2023/07/17 05:55:35;;;;;;;4.00;3.70;;;18.50;99.90;;;;;;4990126;28;20999;-57
2023/07/17 05:58:04;;;;;;;4.97;4.27;;;18.50;99.90;;;;;;4987850;28;20591;-58
2023/07/17 06:00:32;;;;;;;5.37;4.37;;;18.50;99.90;;;;;;4993580;28;20556;-58
2023/07/17 06:03:00;;;;;;;5.63;4.27;;;18.50;99.90;;;;;;4994989;28;21004;-57
2023/07/17 06:05:28;;;;;;;4.67;3.80;;;18.60;99.90;;;;;;4995630;28;20493;-57
2023/07/17 06:07:56;;;;;;;4.57;4.17;;;18.60;99.90;;;;;;4992764;28;20508;-58
2023/07/17 06:10:24;;;;;;;4.23;3.80;;;18.70;99.90;;;;;;4987273;28;20492;-57
2023/07/17 06:12:52;;;;;;;4.73;4.23;;;18.70;99.90;;;;;;4992068;28;20529;-58
2023/07/17 06:15:21;;;;;;;4.90;4.07;;;18.70;99.90;;;;;;4992203;28;20516;-58
2023/07/17 06:17:50;;;;;;;5.63;3.93;;;18.70;99.90;;;;;;4994650;28;20468;-58
2023/07/17 06:20:18;;;;;;;5.37;4.57;;;18.60;99.90;;;;;;4999054;28;20882;-58
2023/07/17 06:22:46;;;;;;;4.90;4.23;;;18.70;99.90;;;;;;4982754;28;20487;-57
2023/07/17 06:25:14;;;;;;;5.43;4.20;;;18.70;99.90;;;;;;4982282;28;20522;-58
2023/07/17 06:27:42;;;;;;;4.73;4.23;;;18.80;99.90;;;;;;4988544;28;20480;-58
2023/07/17 06:30:11;;;;;;;5.17;3.87;;;18.80;99.90;;;;;;4982997;28;20527;-58
2023/07/17 06:32:41;;;;;;;4.47;3.93;;;18.90;99.90;;;;;;4984759;28;20489;-58
2023/07/17 06:35:09;;;;;;;4.80;4.03;;;18.90;99.90;;;;;;4982911;28;20507;-58
2023/07/17 06:37:37;;;;;;;4.27;3.87;;;18.90;99.90;;;;;;4984795;28;21130;-57
2023/07/17 06:40:07;;;;;;;4.80;3.77;;;18.90;99.90;;;;;;4985742;28;21268;-58
2023/07/17 06:42:35;;;;;;;4.70;3.87;;;18.90;99.90;;;;;;4981101;28;21315;-58
2023/07/17 06:45:04;;;;;;;4.97;4.10;;;18.90;99.90;;;;;;4984374;28;20488;-58
2023/07/17 06:47:32;;;;;;;4.50;3.43;;;18.90;99.90;;;;;;4983880;28;20504;-57
2023/07/17 06:50:07;;;;;;;6.63;4.20;;;18.80;99.90;;;;;;4988423;28;20472;-59
2023/07/17 06:52:37;;;;;;;4.17;3.77;;;18.90;99.90;;;;;;4980654;28;20502;-57
2023/07/17 06:55:08;;;;;;;4.73;3.87;;;18.90;99.90;;;;;;4981334;28;20882;-57
2023/07/17 06:57:36;;;;;;;4.53;3.40;;;19.00;99.90;;;;;;4984139;28;20608;-57
2023/07/17 07:00:06;;;;;;;5.80;4.37;;;19.10;99.90;;;;;;4988672;28;20477;-57
2023/07/17 07:02:35;;;;;;;4.23;3.30;;;19.10;99.90;;;;;;4991025;28;20479;-58
2023/07/17 07:05:07;;;;;;;4.03;3.23;;;19.20;99.90;;;;;;4990788;28;20873;-57
2023/07/17 07:07:35;;;;;;;3.80;3.20;;;19.20;99.90;;;;;;4987349;28;20559;-57
2023/07/17 07:10:03;;;;;;;4.13;3.50;;;19.30;99.90;;;;;;4988177;28;20551;-56
2023/07/17 07:12:31;;;;;;;7.30;4.03;;;19.40;99.90;;;;;;4989172;28;20492;-58
2023/07/17 07:14:59;;;;;;;5.33;3.53;;;19.40;99.90;;;;;;4990612;28;21122;-57
2023/07/17 07:17:27;;;;;;;5.93;3.70;;;19.40;99.90;;;;;;4990308;28;20859;-57
2023/07/17 07:19:55;;;;;;;7.03;3.57;;;19.40;99.90;;;;;;4985000;28;20775;-56
2023/07/17 07:22:25;;;;;;;7.37;3.70;;;19.50;99.90;;;;;;4986224;28;21218;-56
2023/07/17 07:24:53;;;;;;;4.20;3.60;;;19.60;99.90;;;;;;4984784;28;20532;-56
2023/07/17 07:27:21;;;;;;;6.23;3.43;;;19.70;99.90;;;;;;4984228;28;20484;-58
2023/07/17 07:29:49;;;;;;;5.70;3.90;;;19.80;99.90;;;;;;4982243;28;20546;-57
2023/07/17 07:32:17;;;;;;;5.00;3.50;;;19.80;99.90;;;;;;4980759;28;21018;-57
2023/07/17 07:34:45;;;;;;;5.13;4.30;;;19.90;99.90;;;;;;4980630;28;20496;-58
2023/07/17 07:37:13;;;;;;;5.73;3.73;;;20.00;99.90;;;;;;4981564;28;20487;-58
2023/07/17 07:39:42;;;;;;;5.67;4.23;;;20.00;99.90;;;;;;4982969;28;20472;-58
2023/07/17 07:42:10;;;;;;;4.37;3.97;;;20.00;99.90;;;;;;4983872;28;20573;-58
2023/07/17 07:44:38;;;;;;;6.70;3.47;;;20.10;99.90;;;;;;4984323;28;20584;-59
2023/07/17 07:47:07;;;;;;;4.60;3.63;;;20.10;99.90;;;;;;4969463;28;20472;-57
2023/07/17 07:49:36;;;;;;;5.63;3.67;;;20.10;99.90;;;;;;4981067;28;20500;-57
2023/07/17 07:52:05;;;;;;;5.30;3.57;;;20.10;99.90;;;;;;4985945;28;20496;-57
2023/07/17 07:54:33;;;;;;;4.87;3.43;;;20.20;99.90;;;;;;4979350;28;20603;-55
2023/07/17 07:57:03;;;;;;;4.47;3.23;;;20.30;99.90;;;;;;4984201;28;20559;-56
2023/07/17 07:59:31;;;;;;;4.10;3.33;;;20.30;99.90;;;;;;4975475;28;20950;-57
2023/07/17 08:01:59;;;;;;;5.03;3.33;;;20.30;99.90;;;;;;4984637;28;20588;-58
2023/07/17 08:04:28;;;;;;;6.27;3.43;;;20.30;99.90;;;;;;4981048;28;20579;-57
2023/07/17 08:06:57;;;;;;;5.80;3.43;;;20.30;99.90;;;;;;4975523;28;21366;-58
2023/07/17 08:09:25;;;;;;;3.77;3.30;;;20.20;99.90;;;;;;4980400;28;20560;-59
2023/07/17 08:11:53;;;;;;;4.43;2.93;;;20.20;99.90;;;;;;4983803;28;20549;-59
2023/07/17 08:14:23;;;;;;;4.07;3.27;;;20.20;99.90;;;;;;4984007;28;20623;-58
2023/07/17 08:16:51;;;;;;;4.23;3.23;;;20.20;99.90;;;;;;4980250;28;20825;-59
2023/07/17 08:19:20;;;;;;;4.30;3.37;;;20.20;99.90;;;;;;4976260;28;20518;-59
2023/07/17 08:21:48;;;;;;;3.13;2.83;;;20.20;99.90;;;;;;4983311;28;20499;-58
2023/07/17 08:24:16;;;;;;;3.73;3.40;;;20.30;99.90;;;;;;4983587;28;20489;-59
2023/07/17 08:26:44;;;;;;;3.47;3.20;;;20.30;99.90;;;;;;4976536;28;20469;-58
2023/07/17 08:29:13;;;;;;;3.70;3.40;;;20.40;99.90;;;;;;4984131;28;22296;-58
2023/07/17 08:31:42;;;;;;;4.33;3.10;;;20.40;99.90;;;;;;4985421;28;20587;-59
2023/07/17 08:34:10;;;;;;;4.10;2.97;;;20.60;99.90;;;;;;4982832;28;20567;-59
2023/07/17 08:36:38;;;;;;;3.43;3.13;;;20.60;99.90;;;;;;4984465;28;20530;-59
2023/07/17 08:39:06;;;;;;;4.27;3.17;;;20.70;99.90;;;;;;4987686;28;21070;-58
2023/07/17 08:41:36;;;;;;;4.27;3.87;;;20.80;99.90;;;;;;4986698;28;20507;-58
2023/07/17 08:44:05;;;;;;;4.10;3.03;;;20.80;99.90;;;;;;4984168;28;20872;-59
2023/07/17 08:46:33;;;;;;;3.70;3.13;;;20.90;99.90;;;;;;4986491;28;20485;-57
2023/07/17 08:49:05;;;;;;;3.23;2.80;;;20.90;99.90;;;;;;4984164;28;20472;-59
2023/07/17 08:51:33;;;;;;;2.90;2.70;;;20.90;99.90;;;;;;4983685;28;20608;-59
2023/07/17 08:54:03;;;;;;;4.40;2.97;;;21.00;99.90;;;;;;4988723;28;20587;-58
2023/07/17 08:56:52;;;;;;;3.57;3.27;;;21.10;99.90;;;;;;4987862;28;20849;-58
2023/07/17 08:59:21;;;;;;;3.27;2.97;;;21.20;99.90;;;;;;4987169;28;20476;-58
2023/07/17 09:01:49;;;;;;;4.27;3.07;;;21.20;99.90;;;;;;4992325;28;20484;-59
2023/07/17 09:04:21;;;;;;;3.97;3.30;;;21.20;99.90;;;;;;4991319;28;20492;-59
2023/07/17 09:06:51;;;;;;;5.13;4.10;;;21.30;99.90;;;;;;4994430;28;20496;-58
2023/07/17 09:09:19;;;;;;;3.53;3.20;;;21.20;99.90;;;;;;4991680;28;20901;-57
2023/07/17 09:11:47;;;;;;;3.93;3.33;;;21.20;99.90;;;;;;4988781;28;20492;-58
2023/07/17 09:14:15;;;;;;;4.00;3.60;;;21.20;99.90;;;;;;4985975;28;20554;-59
2023/07/17 09:16:46;;;;;;;3.93;3.60;;;21.20;99.90;;;;;;4990183;28;20586;-61
2023/07/17 09:19:14;;;;;;;3.90;3.53;;;21.10;99.90;;;;;;4975227;28;20476;-61
2023/07/17 09:21:44;;;;;;;5.23;3.60;;;21.20;99.90;;;;;;4988581;28;20521;-61
2023/07/17 09:24:12;;;;;;;6.30;3.63;;;21.30;99.90;;;;;;4989164;28;20499;-60
2023/07/17 09:26:40;;;;;;;4.93;4.00;;;21.40;99.90;;;;;;4991054;28;20857;-60
2023/07/17 09:29:08;;;;;;;4.40;3.93;;;21.40;99.90;;;;;;4987362;28;20460;-60
2023/07/17 09:31:36;;;;;;;5.73;3.83;;;21.50;99.90;;;;;;4990857;28;20934;-61
2023/07/17 09:34:13;;;;;;;3.60;3.30;;;21.60;99.90;;;;;;4984706;28;20557;-61
2023/07/17 09:36:41;;;;;;;4.30;3.00;;;21.70;99.90;;;;;;4990655;28;20514;-61
2023/07/17 09:39:11;;;;;;;7.10;3.30;;;21.80;99.90;;;;;;4995071;28;20490;-61
2023/07/17 09:41:39;;;;;;;3.90;2.90;;;21.80;99.90;;;;;;4994190;28;20591;-60
2023/07/17 09:44:08;;;;;;;3.60;2.70;;;21.80;99.90;;;;;;4991735;28;20567;-57
2023/07/17 09:46:37;;;;;;;5.43;2.83;;;21.70;99.90;;;;;;4992985;28;20488;-58
2023/07/17 09:49:07;;;;;;;3.23;2.73;;;21.70;99.90;;;;;;4990457;28;20488;-60
2023/07/17 09:51:36;;;;;;;6.03;2.77;;;21.80;99.90;;;;;;4990049;28;20494;-61
2023/07/17 09:54:05;;;;;;;8.50;2.53;;;21.90;99.90;;;;;;4993248;28;20883;-61
2023/07/17 09:56:34;;;;;;;4.30;2.40;;;22.00;99.90;;;;;;4986995;28;20472;-58
2023/07/17 09:59:13;;;;;;;2.47;2.27;;;22.00;99.90;;;;;;4990661;28;20871;-58
2023/07/17 10:01:45;;;;;;;3.53;2.70;;;22.00;99.90;;;;;;4985297;28;20484;-61
2023/07/17 10:04:17;;;;;;;3.40;2.80;;;22.00;99.90;;;;;;4988694;28;20845;-61
2023/07/17 10:06:48;;;;;;;2.60;2.40;;;22.20;99.90;;;;;;4985357;28;21060;-61
2023/07/17 10:09:20;;;;;;;3.43;2.33;;;22.10;99.90;;;;;;4988013;28;20552;-57
2023/07/17 10:11:50;;;;;;;3.63;3.00;;;22.00;99.90;;;;;;4993458;28;21024;-58
2023/07/17 10:14:18;;;;;;;3.60;2.43;;;21.90;99.90;;;;;;4988478;28;20579;-61
2023/07/17 10:16:46;;;;;;;3.77;2.90;;;21.80;99.90;;;;;;4987212;28;20567;-60
2023/07/17 10:19:14;;;;;;;4.93;2.90;;;21.70;99.90;;;;;;4984338;28;20531;-60
2023/07/17 10:21:54;;;;;;;3.73;2.80;;;21.60;99.90;;;;;;4987299;28;20856;-61
2023/07/17 10:24:24;;;;;;;3.17;2.87;;;21.50;99.90;;;;;;4991232;28;20492;-60
2023/07/17 10:26:53;;;;;;;3.30;3.00;;;21.50;99.90;;;;;;4989706;28;21073;-61
2023/07/17 10:29:31;;;;;;;3.13;2.70;;;21.60;99.90;;;;;;4989264;28;20501;-60
2023/07/17 10:31:59;;;;;;;3.53;3.00;;;21.70;99.90;;;;;;4993370;28;20499;-58
2023/07/17 10:34:48;;;;;;;3.60;3.27;;;21.70;99.90;;;;;;4991625;28;20587;-58
2023/07/17 10:37:19;;;;;;;3.70;2.80;;;21.80;99.90;;;;;;4988747;28;20527;-59
2023/07/17 10:39:47;;;;;;;3.43;3.10;;;21.90;99.90;;;;;;4994026;28;21138;-60
2023/07/17 10:42:17;;;;;;;4.87;3.23;;;21.90;99.90;;;;;;4989055;28;20583;-61
2023/07/17 10:44:45;;;;;;;4.87;3.30;;;22.00;99.90;;;;;;4989536;28;20579;-60
2023/07/17 10:47:13;;;;;;;3.20;2.90;;;21.90;99.90;;;;;;4988307;28;20616;-61
2023/07/17 10:49:44;;;;;;;4.07;3.20;;;22.00;99.90;;;;;;4994233;28;21191;-61
2023/07/17 10:52:12;;;;;;;4.23;3.30;;;22.20;99.90;;;;;;4988358;28;20682;-61
2023/07/17 10:54:40;;;;;;;4.97;3.33;;;22.40;99.90;;;;;;4989799;28;20563;-59
2023/07/17 10:57:08;;;;;;;4.40;3.43;;;22.50;99.90;;;;;;4991494;28;20603;-59
2023/07/17 10:59:37;;;;;;;3.80;3.43;;;22.60;99.90;;;;;;4994525;28;20575;-61
2023/07/17 11:02:06;;;;;;;4.07;3.30;;;22.70;99.90;;;;;;4989969;28;20484;-61
2023/07/17 11:04:35;;;;;;;4.67;3.10;;;22.80;99.90;;;;;;4994539;28;20561;-59
2023/07/17 11:07:09;;;;;;;5.77;3.50;;;22.80;99.90;;;;;;4991768;28;20988;-59
2023/07/17 11:09:37;;;;;;;4.00;3.07;;;22.80;99.90;;;;;;4995617;28;20590;-59
2023/07/17 11:12:06;;;;;;;3.90;3.50;;;22.80;99.90;;;;;;4990260;28;20484;-59
2023/07/17 11:14:35;;;;;;;3.30;2.97;;;22.80;99.90;;;;;;4996765;28;20641;-59
2023/07/17 11:17:05;;;;;;;6.77;3.57;;;22.70;99.90;;;;;;4990050;28;20485;-58
2023/07/17 11:19:33;;;;;;;4.37;3.57;;;22.70;99.90;;;;;;4996335;28;20471;-59
2023/07/17 11:22:01;;;;;;;4.93;3.50;;;22.70;99.90;;;;;;4985158;28;21068;-58
2023/07/17 11:24:29;;;;;;;4.30;3.70;;;22.70;99.90;;;;;;4998237;28;21360;-58
2023/07/17 11:26:58;;;;;;;4.17;3.77;;;22.80;99.90;;;;;;4993092;28;20555;-58
2023/07/17 11:29:26;;;;;;;7.50;3.80;;;22.70;99.90;;;;;;4994372;28;20480;-59
2023/07/17 11:31:59;;;;;;;4.57;3.70;;;22.50;99.90;;;;;;4994849;28;20488;-59
2023/07/17 11:34:28;;;;;;;6.77;4.10;;;22.50;99.90;;;;;;4990636;28;20611;-59
2023/07/17 11:36:56;;;;;;;7.23;3.73;;;22.40;99.90;;;;;;4985655;28;20477;-58
2023/07/17 11:39:25;;;;;;;3.93;3.53;;;22.20;99.90;;;;;;4997086;28;20476;-59
2023/07/17 11:41:55;;;;;;;5.30;3.90;;;22.00;99.90;;;;;;4993017;28;20491;-58
2023/07/17 11:44:24;;;;;;;4.50;3.73;;;21.90;99.90;;;;;;4989941;28;20492;-59
2023/07/17 11:46:54;;;;;;;4.00;3.60;;;21.80;99.90;;;;;;4991417;28;22220;-58
2023/07/17 11:49:25;;;;;;;3.63;3.23;;;21.80;99.90;;;;;;5000832;28;20527;-59
2023/07/17 11:51:55;;;;;;;4.53;3.50;;;21.70;99.90;;;;;;4995874;28;20488;-59
2023/07/17 11:54:29;;;;;;;5.00;3.87;;;21.60;99.90;;;;;;4987838;28;20519;-60
2023/07/17 11:56:59;;;;;;;2.80;2.30;;;21.50;99.90;;;;;;4984672;28;20479;-60
2023/07/17 11:59:27;;;;;;;3.10;1.90;;;21.60;99.90;;;;;;4987082;28;20546;-59
2023/07/17 12:01:55;;;;;;;1.93;1.73;;;21.50;99.90;;;;;;4985106;28;20571;-59
2023/07/17 12:04:25;;;;;;;2.80;1.90;;;21.50;99.90;;;;;;4990640;28;20861;-59
2023/07/17 12:06:55;;;;;;;1.93;1.80;;;21.40;99.90;;;;;;4991738;28;20507;-59
2023/07/17 12:09:24;;;;;;;2.00;1.73;;;21.10;99.90;;;;;;4995184;28;20478;-60
2023/07/17 12:11:52;;;;;;;4.60;2.37;;;21.00;99.90;;;;;;4991283;28;20579;-59
2023/07/17 12:14:20;;;;;;;3.00;2.10;;;20.90;99.90;;;;;;4992235;28;22108;-59
2023/07/17 12:16:48;;;;;;;2.10;1.80;;;20.80;99.90;;;;;;4994056;28;20503;-59
2023/07/17 12:19:16;;;;;;;3.47;2.10;;;20.70;99.90;;;;;;4991766;28;20570;-59
2023/07/17 12:21:44;;;;;;;2.20;2.00;;;20.60;99.90;;;;;;4991324;28;20499;-59
2023/07/17 12:24:14;;;;;;;3.20;2.30;;;20.70;99.90;;;;;;4996671;28;20496;-59
2023/07/17 12:26:42;;;;;;;1.67;1.50;;;21.00;99.90;;;;;;4994320;28;20514;-58
2023/07/17 12:29:11;;;;;;;2.73;1.40;;;21.10;99.90;;;;;;4987950;28;21084;-59
2023/07/17 12:31:39;;;;;;;1.40;1.30;;;21.10;99.90;;;;;;4994780;28;20523;-60
2023/07/17 12:34:08;;;;;;;1.33;1.10;;;21.10;99.90;;;;;;4991746;28;20495;-59
2023/07/17 12:36:36;;;;;;;1.97;1.10;;;21.20;99.90;;;;;;4988485;28;21493;-59
2023/07/17 12:39:16;;;;;;;2.63;1.50;;;21.40;99.90;;;;;;4993100;28;20555;-59
2023/07/17 12:41:45;;;;;;;1.43;1.20;;;21.50;99.90;;;;;;4994790;28;20480;-59
2023/07/17 12:44:13;;;;;;;1.40;1.17;;;21.60;99.90;;;;;;4991543;28;20575;-59
2023/07/17 12:46:41;;;;;;;1.30;1.20;;;21.80;99.90;;;;;;4984889;28;20548;-59
2023/07/17 12:49:12;;;;;;;2.33;1.30;;;21.90;99.90;;;;;;4989241;28;20470;-59
2023/07/17 12:51:41;;;;;;;2.00;1.10;;;22.20;99.90;;;;;;4987267;28;20507;-60
2023/07/17 12:54:10;;;;;;;1.60;1.20;;;22.30;99.90;;;;;;4992392;28;20500;-60
2023/07/17 12:56:41;;;;;;;2.07;1.53;;;22.30;99.90;;;;;;4992285;28;20480;-59